DENLS EDDP-EDDP
Flight info
| Callsign | DENLS |
|---|---|
| Flight time | 0h 46m |
| Altitude | 8000 |
| Route | DCT |
| Aircraft | DA40/L-SBDGRY/S |
Departure
| Time | 2026-05-06 17:25 |
|---|---|
| Airport | Leipzig/Halle Airport (EDDP) |
Arrival
| Time | 2026-05-06 18:11 |
|---|---|
| Airport | Leipzig/Halle Airport (EDDP) |
| Time | Latitude | Longitude | Altitude | Speed | Heading |
|---|---|---|---|---|---|
| 2026-05-06 17:11 | 51.41844 | 12.22495 | 433 ft | 0 kts | 15° |
| 2026-05-06 17:17 | 51.41849 | 12.22497 | 429 ft | 4 kts | 19° |
| 2026-05-06 17:17 | 51.41887 | 12.22557 | 434 ft | 12 kts | 75° |
| 2026-05-06 17:18 | 51.41839 | 12.22671 | 439 ft | 16 kts | 178° |
| 2026-05-06 17:18 | 51.41724 | 12.22644 | 440 ft | 16 kts | 158° |
| 2026-05-06 17:18 | 51.41688 | 12.22772 | 445 ft | 11 kts | 94° |
| 2026-05-06 17:18 | 51.41663 | 12.22860 | 448 ft | 10 kts | 106° |
| 2026-05-06 17:19 | 51.41639 | 12.23004 | 453 ft | 17 kts | 104° |
| 2026-05-06 17:19 | 51.41600 | 12.23204 | 458 ft | 19 kts | 129° |
| 2026-05-06 17:19 | 51.41484 | 12.23239 | 459 ft | 17 kts | 175° |
| 2026-05-06 17:19 | 51.41399 | 12.23247 | 462 ft | 3 kts | 172° |
| 2026-05-06 17:20 | 51.41398 | 12.23247 | 461 ft | 0 kts | 171° |
| 2026-05-06 17:20 | 51.41397 | 12.23247 | 462 ft | 0 kts | 172° |
| 2026-05-06 17:23 | 51.41385 | 12.23249 | 462 ft | 9 kts | 177° |
| 2026-05-06 17:23 | 51.41301 | 12.23335 | 464 ft | 21 kts | 90° |
| 2026-05-06 17:24 | 51.41319 | 12.23824 | 467 ft | 65 kts | 84° |
| 2026-05-06 17:24 | 51.41351 | 12.24656 | 588 ft | 76 kts | 82° |
| 2026-05-06 17:24 | 51.41361 | 12.25525 | 768 ft | 78 kts | 80° |
| 2026-05-06 17:24 | 51.41185 | 12.26345 | 837 ft | 96 kts | 149° |
| 2026-05-06 17:25 | 51.40545 | 12.26435 | 1038 ft | 92 kts | 173° |
| 2026-05-06 17:25 | 51.39898 | 12.26357 | 1193 ft | 98 kts | 213° |
| 2026-05-06 17:25 | 51.39656 | 12.25347 | 1209 ft | 102 kts | 263° |
| 2026-05-06 17:25 | 51.39561 | 12.24215 | 1194 ft | 104 kts | 266° |
| 2026-05-06 17:26 | 51.39479 | 12.23089 | 1221 ft | 99 kts | 268° |
| 2026-05-06 17:26 | 51.39416 | 12.22024 | 1130 ft | 95 kts | 270° |
| 2026-05-06 17:26 | 51.39368 | 12.21037 | 1045 ft | 84 kts | 273° |
| 2026-05-06 17:26 | 51.39372 | 12.20079 | 931 ft | 87 kts | 276° |
| 2026-05-06 17:27 | 51.39413 | 12.19137 | 863 ft | 78 kts | 306° |
| 2026-05-06 17:27 | 51.39847 | 12.18875 | 829 ft | 68 kts | 0° |
| 2026-05-06 17:27 | 51.40314 | 12.18867 | 842 ft | 65 kts | 4° |
| 2026-05-06 17:27 | 51.40760 | 12.18953 | 778 ft | 65 kts | 15° |
| 2026-05-06 17:28 | 51.41032 | 12.19532 | 716 ft | 71 kts | 64° |
| 2026-05-06 17:28 | 51.41131 | 12.20278 | 575 ft | 66 kts | 73° |
| 2026-05-06 17:28 | 51.41185 | 12.21013 | 459 ft | 64 kts | 78° |
| 2026-05-06 17:28 | 51.41218 | 12.21676 | 448 ft | 64 kts | 79° |
| 2026-05-06 17:29 | 51.41242 | 12.22464 | 542 ft | 75 kts | 78° |
| 2026-05-06 17:29 | 51.41293 | 12.23286 | 720 ft | 76 kts | 73° |
| 2026-05-06 17:29 | 51.41353 | 12.24120 | 954 ft | 72 kts | 81° |
| 2026-05-06 17:29 | 51.41245 | 12.24895 | 1068 ft | 80 kts | 124° |
| 2026-05-06 17:30 | 51.40725 | 12.25162 | 1240 ft | 84 kts | 178° |
| 2026-05-06 17:30 | 51.40120 | 12.25043 | 1316 ft | 92 kts | 183° |
| 2026-05-06 17:30 | 51.39543 | 12.24577 | 1369 ft | 102 kts | 239° |
| 2026-05-06 17:30 | 51.39540 | 12.23509 | 1378 ft | 96 kts | 283° |
| 2026-05-06 17:31 | 51.39602 | 12.22439 | 1354 ft | 99 kts | 275° |
| 2026-05-06 17:31 | 51.39566 | 12.21321 | 1356 ft | 103 kts | 269° |
| 2026-05-06 17:31 | 51.39524 | 12.20197 | 1340 ft | 98 kts | 271° |
| 2026-05-06 17:31 | 51.39526 | 12.19142 | 1319 ft | 92 kts | 274° |
| 2026-05-06 17:32 | 51.39539 | 12.18137 | 1264 ft | 88 kts | 275° |
| 2026-05-06 17:32 | 51.39552 | 12.17168 | 1159 ft | 84 kts | 277° |
| 2026-05-06 17:32 | 51.39582 | 12.16242 | 1033 ft | 83 kts | 279° |
| 2026-05-06 17:32 | 51.39597 | 12.15325 | 983 ft | 84 kts | 271° |
| 2026-05-06 17:33 | 51.39549 | 12.14392 | 995 ft | 83 kts | 271° |
| 2026-05-06 17:33 | 51.39286 | 12.13629 | 892 ft | 89 kts | 188° |
| 2026-05-06 17:33 | 51.38845 | 12.14125 | 907 ft | 76 kts | 108° |
| 2026-05-06 17:33 | 51.38722 | 12.14939 | 946 ft | 75 kts | 90° |
| 2026-05-06 17:34 | 51.38655 | 12.15791 | 1026 ft | 76 kts | 90° |
| 2026-05-06 17:34 | 51.38562 | 12.16599 | 1235 ft | 76 kts | 93° |
| 2026-05-06 17:34 | 51.38507 | 12.17424 | 1412 ft | 76 kts | 88° |
| 2026-05-06 17:34 | 51.38515 | 12.18273 | 1451 ft | 75 kts | 82° |
| 2026-05-06 17:35 | 51.38545 | 12.19119 | 1458 ft | 77 kts | 83° |
| 2026-05-06 17:35 | 51.38589 | 12.19976 | 1479 ft | 77 kts | 80° |
| 2026-05-06 17:35 | 51.38745 | 12.20775 | 1534 ft | 78 kts | 57° |
| 2026-05-06 17:36 | 51.39598 | 12.21951 | 1605 ft | 84 kts | 33° |
| 2026-05-06 17:36 | 51.40139 | 12.22361 | 1559 ft | 88 kts | 28° |
| 2026-05-06 17:36 | 51.40727 | 12.22637 | 1506 ft | 91 kts | 18° |
| 2026-05-06 17:36 | 51.41353 | 12.22889 | 1468 ft | 92 kts | 18° |
| 2026-05-06 17:37 | 51.41993 | 12.23126 | 1431 ft | 94 kts | 18° |
| 2026-05-06 17:37 | 51.42655 | 12.23245 | 1370 ft | 97 kts | 8° |
| 2026-05-06 17:37 | 51.43291 | 12.23127 | 1231 ft | 86 kts | 342° |
| 2026-05-06 17:37 | 51.43683 | 12.22473 | 1116 ft | 81 kts | 298° |
| 2026-05-06 17:38 | 51.43776 | 12.21571 | 1006 ft | 84 kts | 279° |
| 2026-05-06 17:38 | 51.43814 | 12.20632 | 927 ft | 83 kts | 280° |
| 2026-05-06 17:38 | 51.43701 | 12.19766 | 861 ft | 88 kts | 219° |
| 2026-05-06 17:38 | 51.43187 | 12.19897 | 802 ft | 80 kts | 119° |
| 2026-05-06 17:39 | 51.43078 | 12.20718 | 635 ft | 74 kts | 84° |
| 2026-05-06 17:39 | 51.43114 | 12.21516 | 507 ft | 71 kts | 78° |
| 2026-05-06 17:39 | 51.43154 | 12.22306 | 444 ft | 73 kts | 78° |
| 2026-05-06 17:39 | 51.43197 | 12.23135 | 453 ft | 76 kts | 78° |
| 2026-05-06 17:40 | 51.43239 | 12.23995 | 449 ft | 80 kts | 79° |
| 2026-05-06 17:40 | 51.43277 | 12.24832 | 526 ft | 73 kts | 77° |
| 2026-05-06 17:40 | 51.43303 | 12.25663 | 572 ft | 75 kts | 82° |
| 2026-05-06 17:40 | 51.43336 | 12.26495 | 694 ft | 71 kts | 76° |
| 2026-05-06 17:41 | 51.43644 | 12.26970 | 860 ft | 70 kts | 3° |
| 2026-05-06 17:41 | 51.44124 | 12.26740 | 1087 ft | 80 kts | 326° |
| 2026-05-06 17:41 | 51.44442 | 12.25919 | 1216 ft | 92 kts | 293° |
| 2026-05-06 17:41 | 51.44579 | 12.24852 | 1249 ft | 102 kts | 281° |
| 2026-05-06 17:42 | 51.44583 | 12.23696 | 1299 ft | 104 kts | 268° |
| 2026-05-06 17:42 | 51.44478 | 12.22546 | 1358 ft | 104 kts | 260° |
| 2026-05-06 17:42 | 51.44316 | 12.21400 | 1310 ft | 102 kts | 258° |
| 2026-05-06 17:42 | 51.44146 | 12.20358 | 1177 ft | 91 kts | 245° |
| 2026-05-06 17:43 | 51.43629 | 12.19904 | 1117 ft | 87 kts | 179° |
| 2026-05-06 17:43 | 51.43165 | 12.20381 | 954 ft | 83 kts | 114° |
| 2026-05-06 17:43 | 51.43106 | 12.21254 | 811 ft | 75 kts | 84° |
| 2026-05-06 17:43 | 51.43160 | 12.22120 | 823 ft | 79 kts | 76° |
| 2026-05-06 17:44 | 51.43358 | 12.22891 | 888 ft | 77 kts | 26° |
| 2026-05-06 17:44 | 51.43887 | 12.22881 | 1037 ft | 85 kts | 332° |
| 2026-05-06 17:44 | 51.44204 | 12.21990 | 1112 ft | 102 kts | 287° |
| 2026-05-06 17:44 | 51.44273 | 12.20911 | 1083 ft | 90 kts | 281° |
| 2026-05-06 17:45 | 51.44326 | 12.19926 | 1020 ft | 91 kts | 276° |
| 2026-05-06 17:45 | 51.44072 | 12.19085 | 983 ft | 90 kts | 200° |
| 2026-05-06 17:45 | 51.43499 | 12.19259 | 851 ft | 86 kts | 137° |
| 2026-05-06 17:45 | 51.43169 | 12.19985 | 718 ft | 78 kts | 103° |
| 2026-05-06 17:46 | 51.43088 | 12.20779 | 562 ft | 68 kts | 82° |
| 2026-05-06 17:46 | 51.43116 | 12.21506 | 457 ft | 67 kts | 75° |
| 2026-05-06 17:46 | 51.43153 | 12.22236 | 427 ft | 57 kts | 75° |
| 2026-05-06 17:46 | 51.43183 | 12.22923 | 437 ft | 75 kts | 79° |
| 2026-05-06 17:47 | 51.43214 | 12.23734 | 646 ft | 71 kts | 78° |
| 2026-05-06 17:47 | 51.43272 | 12.24500 | 873 ft | 67 kts | 72° |
| 2026-05-06 17:47 | 51.43451 | 12.25073 | 1083 ft | 59 kts | 23° |
| 2026-05-06 17:47 | 51.43895 | 12.25230 | 1137 ft | 75 kts | 3° |
| 2026-05-06 17:48 | 51.44328 | 12.24669 | 1283 ft | 87 kts | 304° |
| 2026-05-06 17:48 | 51.44537 | 12.23649 | 1337 ft | 104 kts | 277° |
| 2026-05-06 17:48 | 51.44522 | 12.22428 | 1388 ft | 113 kts | 266° |
| 2026-05-06 17:48 | 51.44417 | 12.21184 | 1458 ft | 113 kts | 264° |
| 2026-05-06 17:49 | 51.44297 | 12.19973 | 1496 ft | 108 kts | 263° |
| 2026-05-06 17:49 | 51.44169 | 12.18779 | 1403 ft | 102 kts | 264° |
| 2026-05-06 17:49 | 51.44079 | 12.17722 | 1239 ft | 89 kts | 267° |
| 2026-05-06 17:49 | 51.43987 | 12.16765 | 1111 ft | 87 kts | 248° |
| 2026-05-06 17:50 | 51.43489 | 12.16397 | 1001 ft | 90 kts | 154° |
| 2026-05-06 17:50 | 51.43088 | 12.17114 | 1016 ft | 91 kts | 108° |
| 2026-05-06 17:50 | 51.42950 | 12.18138 | 939 ft | 95 kts | 86° |
| 2026-05-06 17:50 | 51.42983 | 12.19156 | 790 ft | 87 kts | 79° |
| 2026-05-06 17:51 | 51.43031 | 12.20044 | 664 ft | 75 kts | 81° |
| 2026-05-06 17:51 | 51.43075 | 12.20873 | 559 ft | 74 kts | 77° |
| 2026-05-06 17:51 | 51.43120 | 12.21656 | 448 ft | 65 kts | 79° |
| 2026-05-06 17:51 | 51.43164 | 12.22322 | 421 ft | 53 kts | 82° |
| 2026-05-06 17:52 | 51.43191 | 12.22992 | 434 ft | 70 kts | 86° |
| 2026-05-06 17:52 | 51.43218 | 12.23775 | 588 ft | 71 kts | 78° |
| 2026-05-06 17:52 | 51.43254 | 12.24567 | 832 ft | 65 kts | 74° |
| 2026-05-06 17:52 | 51.43542 | 12.24986 | 959 ft | 72 kts | 2° |
| 2026-05-06 17:53 | 51.43956 | 12.24426 | 1072 ft | 83 kts | 301° |
| 2026-05-06 17:53 | 51.44067 | 12.23456 | 1185 ft | 92 kts | 278° |
| 2026-05-06 17:53 | 51.44091 | 12.22365 | 1270 ft | 99 kts | 272° |
| 2026-05-06 17:53 | 51.44031 | 12.21226 | 1330 ft | 105 kts | 265° |
| 2026-05-06 17:54 | 51.43934 | 12.20069 | 1461 ft | 103 kts | 262° |
| 2026-05-06 17:54 | 51.43625 | 12.19158 | 1593 ft | 98 kts | 188° |
| 2026-05-06 17:54 | 51.43152 | 12.19731 | 1624 ft | 89 kts | 111° |
| 2026-05-06 17:54 | 51.42835 | 12.20678 | 1602 ft | 99 kts | 114° |
| 2026-05-06 17:55 | 51.42404 | 12.21549 | 1651 ft | 97 kts | 136° |
| 2026-05-06 17:55 | 51.41784 | 12.21897 | 1725 ft | 95 kts | 163° |
| 2026-05-06 17:55 | 51.41134 | 12.22037 | 1766 ft | 95 kts | 166° |
| 2026-05-06 17:55 | 51.40480 | 12.22183 | 1768 ft | 94 kts | 164° |
| 2026-05-06 17:56 | 51.39830 | 12.22375 | 1744 ft | 95 kts | 162° |
| 2026-05-06 17:56 | 51.39178 | 12.22568 | 1724 ft | 96 kts | 174° |
| 2026-05-06 17:56 | 51.38554 | 12.22110 | 1727 ft | 103 kts | 214° |
| 2026-05-06 17:56 | 51.38014 | 12.21319 | 1730 ft | 107 kts | 223° |
| 2026-05-06 17:57 | 51.37575 | 12.20395 | 1796 ft | 102 kts | 233° |
| 2026-05-06 17:57 | 51.37139 | 12.19476 | 1769 ft | 104 kts | 230° |
| 2026-05-06 17:57 | 51.36608 | 12.18724 | 1777 ft | 102 kts | 209° |
| 2026-05-06 17:57 | 51.35985 | 12.18148 | 1786 ft | 104 kts | 203° |
| 2026-05-06 17:58 | 51.35320 | 12.17642 | 1802 ft | 106 kts | 201° |
| 2026-05-06 17:58 | 51.34634 | 12.17155 | 1749 ft | 110 kts | 196° |
| 2026-05-06 17:58 | 51.33927 | 12.16724 | 1756 ft | 108 kts | 197° |
| 2026-05-06 17:58 | 51.33265 | 12.16155 | 1805 ft | 107 kts | 210° |
| 2026-05-06 17:59 | 51.32656 | 12.15517 | 1783 ft | 109 kts | 209° |
| 2026-05-06 17:59 | 51.32016 | 12.14909 | 1793 ft | 107 kts | 206° |
| 2026-05-06 17:59 | 51.31361 | 12.14299 | 1756 ft | 109 kts | 208° |
| 2026-05-06 17:59 | 51.30716 | 12.13683 | 1723 ft | 110 kts | 207° |
| 2026-05-06 18:00 | 51.30078 | 12.13043 | 1751 ft | 107 kts | 210° |
| 2026-05-06 18:00 | 51.29428 | 12.12438 | 1725 ft | 109 kts | 207° |
| 2026-05-06 18:00 | 51.28815 | 12.11685 | 1705 ft | 112 kts | 219° |
| 2026-05-06 18:00 | 51.28232 | 12.10844 | 1668 ft | 112 kts | 219° |
| 2026-05-06 18:01 | 51.27659 | 12.09995 | 1672 ft | 113 kts | 221° |
| 2026-05-06 18:01 | 51.27075 | 12.09171 | 1702 ft | 111 kts | 219° |
| 2026-05-06 18:01 | 51.26474 | 12.08389 | 1682 ft | 109 kts | 216° |
| 2026-05-06 18:01 | 51.25843 | 12.07737 | 1725 ft | 106 kts | 205° |
| 2026-05-06 18:02 | 51.25220 | 12.07174 | 1805 ft | 102 kts | 203° |
| 2026-05-06 18:02 | 51.24549 | 12.06937 | 1779 ft | 101 kts | 157° |
| 2026-05-06 18:02 | 51.24351 | 12.07817 | 1601 ft | 99 kts | 54° |
| 2026-05-06 18:02 | 51.24849 | 12.08389 | 1720 ft | 91 kts | 34° |
| 2026-05-06 18:03 | 51.25372 | 12.08913 | 1762 ft | 87 kts | 36° |
| 2026-05-06 18:03 | 51.25887 | 12.09466 | 1757 ft | 91 kts | 37° |
| 2026-05-06 18:03 | 51.26428 | 12.10030 | 1716 ft | 94 kts | 43° |
| 2026-05-06 18:03 | 51.26859 | 12.10778 | 1742 ft | 91 kts | 51° |
| 2026-05-06 18:04 | 51.27295 | 12.11525 | 1723 ft | 92 kts | 49° |
| 2026-05-06 18:04 | 51.27733 | 12.12281 | 1684 ft | 94 kts | 49° |
| 2026-05-06 18:04 | 51.28154 | 12.13086 | 1649 ft | 96 kts | 49° |
| 2026-05-06 18:04 | 51.28675 | 12.13781 | 1580 ft | 101 kts | 36° |
| 2026-05-06 18:05 | 51.29274 | 12.14379 | 1481 ft | 104 kts | 33° |
| 2026-05-06 18:05 | 51.29864 | 12.14972 | 1486 ft | 98 kts | 33° |
| 2026-05-06 18:05 | 51.30452 | 12.15506 | 1448 ft | 96 kts | 33° |
| 2026-05-06 18:05 | 51.31019 | 12.16031 | 1442 ft | 94 kts | 32° |
| 2026-05-06 18:06 | 51.31597 | 12.16558 | 1399 ft | 96 kts | 31° |
| 2026-05-06 18:06 | 51.31985 | 12.16869 | 1415 ft | 93 kts | 31° |
| 2026-05-06 18:06 | 51.32588 | 12.17380 | 1303 ft | 100 kts | 31° |
| 2026-05-06 18:06 | 51.33193 | 12.17906 | 1282 ft | 96 kts | 31° |
| 2026-05-06 18:07 | 51.33783 | 12.18396 | 1235 ft | 96 kts | 26° |
| 2026-05-06 18:07 | 51.34431 | 12.18747 | 1159 ft | 100 kts | 15° |
| 2026-05-06 18:07 | 51.35117 | 12.18949 | 1089 ft | 98 kts | 11° |
| 2026-05-06 18:07 | 51.35775 | 12.19047 | 1096 ft | 94 kts | 358° |
| 2026-05-06 18:08 | 51.36408 | 12.18816 | 1120 ft | 95 kts | 345° |
| 2026-05-06 18:08 | 51.36926 | 12.18450 | 1077 ft | 76 kts | 339° |
| 2026-05-06 18:08 | 51.37376 | 12.18036 | 1027 ft | 74 kts | 334° |
| 2026-05-06 18:08 | 51.37804 | 12.17624 | 956 ft | 74 kts | 333° |
| 2026-05-06 18:09 | 51.38285 | 12.17312 | 901 ft | 81 kts | 338° |
| 2026-05-06 18:09 | 51.38824 | 12.17074 | 936 ft | 79 kts | 3° |
| 2026-05-06 18:09 | 51.39380 | 12.17135 | 942 ft | 82 kts | 4° |
| 2026-05-06 18:09 | 51.39962 | 12.17253 | 949 ft | 86 kts | 19° |
| 2026-05-06 18:10 | 51.40500 | 12.17744 | 859 ft | 89 kts | 36° |
| 2026-05-06 18:10 | 51.40897 | 12.18403 | 764 ft | 78 kts | 56° |
| 2026-05-06 18:10 | 51.41077 | 12.19196 | 631 ft | 76 kts | 76° |
| 2026-05-06 18:10 | 51.41127 | 12.20008 | 497 ft | 70 kts | 80° |
| 2026-05-06 18:11 | 51.41169 | 12.20754 | 434 ft | 63 kts | 79° |
| 2026-05-06 18:11 | 51.41200 | 12.21311 | 443 ft | 39 kts | 83° |
| 2026-05-06 18:11 | 51.41218 | 12.21687 | 448 ft | 32 kts | 85° |
| 2026-05-06 18:11 | 51.41233 | 12.22017 | 451 ft | 28 kts | 85° |
| 2026-05-06 18:12 | 51.41249 | 12.22330 | 454 ft | 28 kts | 87° |
| 2026-05-06 18:12 | 51.41264 | 12.22622 | 457 ft | 34 kts | 86° |
| 2026-05-06 18:12 | 51.41282 | 12.23053 | 461 ft | 38 kts | 86° |
| 2026-05-06 18:12 | 51.41223 | 12.23268 | 464 ft | 20 kts | 177° |
| 2026-05-06 18:13 | 51.41150 | 12.23278 | 466 ft | 1 kts | 176° |
| 2026-05-06 18:13 | 51.41139 | 12.23279 | 466 ft | 8 kts | 173° |
| 2026-05-06 18:13 | 51.41035 | 12.23229 | 465 ft | 24 kts | 255° |
| 2026-05-06 18:14 | 51.41018 | 12.22932 | 461 ft | 27 kts | 267° |
| 2026-05-06 18:14 | 51.41013 | 12.22856 | 461 ft | 6 kts | 255° |
| 2026-05-06 18:14 | 51.40929 | 12.22842 | 461 ft | 9 kts | 174° |
| 2026-05-06 18:14 | 51.40914 | 12.22845 | 461 ft | 0 kts | 179° |